Aviation Digital Data Service (ADDS)

Output produced by TAFs form (0827 UTC 04 July 2015)
found at http://aviationweather.gov/adds/tafs/
 
KASE 040524Z 0406/0506 20007KT P6SM SCT100 
     TEMPO 0406/0408 VRB15G30KT -TSRA SCT050CB 
     FM041600 36008KT P6SM FEW080 SCT200 
     FM042000 33006G15KT P6SM VCSH SCT080 BKN150 
     FM050300 17008KT P6SM BKN100